createdAt,value
2023-04-20T00:01:36.186Z,16.57
2023-04-20T00:04:04.517Z,17.47
2023-04-20T00:06:34.640Z,18.23
2023-04-20T00:09:04.619Z,16.93
2023-04-20T00:11:34.054Z,16.90
2023-04-20T00:14:02.012Z,17.43
2023-04-20T00:16:30.059Z,17.40
2023-04-20T00:18:59.139Z,17.23
2023-04-20T00:21:27.172Z,18.60
2023-04-20T00:23:55.276Z,17.47
2023-04-20T00:26:23.277Z,17.37
2023-04-20T00:28:53.530Z,17.13
2023-04-20T00:31:22.455Z,17.67
2023-04-20T00:33:50.632Z,19.17
2023-04-20T00:36:18.686Z,18.07
2023-04-20T00:38:46.683Z,19.23
2023-04-20T00:41:14.708Z,19.00
2023-04-20T00:43:53.600Z,19.13
2023-04-20T00:46:22.745Z,19.40
2023-04-20T00:48:52.105Z,20.33
2023-04-20T00:51:22.211Z,19.13
2023-04-20T00:53:50.199Z,18.37
2023-04-20T00:56:19.660Z,18.37
2023-04-20T00:58:48.045Z,20.00
2023-04-20T01:01:18.375Z,18.53
2023-04-20T01:03:46.953Z,19.00
2023-04-20T01:06:15.792Z,18.50
2023-04-20T01:08:49.547Z,18.43
2023-04-20T01:11:18.056Z,17.80
2023-04-20T01:13:46.305Z,17.83
2023-04-20T01:16:14.766Z,18.30
2023-04-20T01:18:46.500Z,16.20
2023-04-20T01:21:16.763Z,18.77
2023-04-20T01:23:46.632Z,19.10
2023-04-20T01:26:16.879Z,17.87
2023-04-20T01:28:45.391Z,18.63
2023-04-20T01:31:14.132Z,20.30
2023-04-20T01:33:42.508Z,19.80
2023-04-20T01:36:11.028Z,19.30
2023-04-20T01:38:39.118Z,20.97
2023-04-20T01:41:10.629Z,21.50
2023-04-20T01:43:39.631Z,21.60
2023-04-20T01:46:08.975Z,21.33
2023-04-20T01:48:37.178Z,23.17
2023-04-20T01:51:05.370Z,22.43
2023-04-20T01:53:33.380Z,23.37
2023-04-20T01:56:01.334Z,24.20
2023-04-20T01:58:31.825Z,24.77
2023-04-20T02:01:01.828Z,24.90
2023-04-20T02:03:29.999Z,27.97
2023-04-20T02:05:58.235Z,25.87
2023-04-20T02:08:26.272Z,27.70
2023-04-20T02:10:54.711Z,27.03
2023-04-20T02:13:22.666Z,25.50
2023-04-20T02:15:52.038Z,27.83
2023-04-20T02:18:20.026Z,26.47
2023-04-20T02:20:48.190Z,26.50
2023-04-20T02:23:19.937Z,28.10
2023-04-20T02:25:47.942Z,27.97
2023-04-20T02:28:15.891Z,27.73
2023-04-20T02:30:43.902Z,29.33
2023-04-20T02:33:13.279Z,29.33
2023-04-20T02:35:41.665Z,30.60
2023-04-20T02:38:09.644Z,29.33
2023-04-20T02:40:37.687Z,29.10
2023-04-20T02:43:05.901Z,30.80
2023-04-20T02:45:34.016Z,30.23
2023-04-20T02:48:03.112Z,30.63
2023-04-20T02:50:32.449Z,31.53
2023-04-20T02:53:00.372Z,30.67
2023-04-20T02:55:28.588Z,28.80
2023-04-20T02:57:56.535Z,28.77
2023-04-20T03:00:25.033Z,25.77
2023-04-20T03:02:53.169Z,25.03
2023-04-20T03:05:21.783Z,23.93
2023-04-20T03:07:51.115Z,23.50
2023-04-20T03:10:19.100Z,22.73
2023-04-20T03:12:47.429Z,22.70
2023-04-20T03:15:15.668Z,22.53
2023-04-20T03:17:43.696Z,20.90
2023-04-20T03:20:12.336Z,19.73
2023-04-20T03:22:40.345Z,17.57
2023-04-20T03:25:10.775Z,20.67
2023-04-20T03:27:38.799Z,17.47
2023-04-20T03:30:13.099Z,14.53
2023-04-20T03:32:42.276Z,11.73
2023-04-20T03:35:12.117Z,12.30
2023-04-20T03:37:40.102Z,10.93
2023-04-20T03:40:11.087Z,11.03
2023-04-20T03:42:39.105Z,10.20
2023-04-20T03:45:08.156Z,10.13
2023-04-20T03:47:37.898Z,9.60
2023-04-20T03:50:06.907Z,10.37
2023-04-20T03:52:34.879Z,11.00
2023-04-20T03:55:02.936Z,10.47
2023-04-20T03:57:32.277Z,12.10
2023-04-20T04:00:00.927Z,11.50
2023-04-20T04:02:29.233Z,13.73
2023-04-20T04:04:57.438Z,11.97
2023-04-20T04:07:25.481Z,11.60
2023-04-20T04:09:53.552Z,12.67
2023-04-20T04:12:21.911Z,12.57
2023-04-20T04:14:51.261Z,14.73
2023-04-20T04:17:19.240Z,12.03
2023-04-20T04:19:47.264Z,11.73
2023-04-20T04:22:15.283Z,12.93
2023-04-20T04:24:47.474Z,13.47
2023-04-20T04:27:15.648Z,12.93
2023-04-20T04:29:44.786Z,12.97
2023-04-20T04:32:14.701Z,13.20
2023-04-20T04:34:44.358Z,11.87
2023-04-20T04:37:13.443Z,12.90
2023-04-20T04:39:41.471Z,13.30
2023-04-20T04:42:09.456Z,13.17
2023-04-20T04:44:37.521Z,12.50
2023-04-20T04:47:05.809Z,12.40
2023-04-20T04:49:36.350Z,13.37
2023-04-20T04:52:04.477Z,12.93
2023-04-20T04:54:32.475Z,14.57
2023-04-20T04:57:00.445Z,13.00
2023-04-20T04:59:28.501Z,12.87
2023-04-20T05:01:56.749Z,11.93
2023-04-20T05:04:24.999Z,13.63
2023-04-20T05:06:54.446Z,12.33
2023-04-20T05:09:22.518Z,12.57
2023-04-20T05:11:50.516Z,13.07
2023-04-20T05:14:18.841Z,13.47
2023-04-20T05:16:46.861Z,13.93
2023-04-20T05:19:14.961Z,13.50
2023-04-20T05:21:42.987Z,15.10
2023-04-20T05:24:12.370Z,15.77
2023-04-20T05:26:40.541Z,13.23
2023-04-20T05:29:08.523Z,13.47
2023-04-20T05:31:36.638Z,12.60
2023-04-20T05:34:04.693Z,14.03
2023-04-20T05:36:33.527Z,12.93
2023-04-20T05:39:02.111Z,13.23
2023-04-20T05:41:31.461Z,13.53
2023-04-20T05:43:59.483Z,12.60
2023-04-20T05:46:29.150Z,12.67
2023-04-20T05:48:57.328Z,12.23
2023-04-20T05:51:29.542Z,12.00
2023-04-20T05:53:57.540Z,11.47
2023-04-20T05:56:25.735Z,13.63
2023-04-20T05:58:55.705Z,11.53
2023-04-20T06:01:23.813Z,11.40
2023-04-20T06:03:52.171Z,11.93
2023-04-20T06:06:20.274Z,11.67
2023-04-20T06:08:48.453Z,11.23
2023-04-20T06:11:16.412Z,10.90
2023-04-20T06:13:44.452Z,9.13
2023-04-20T06:16:14.293Z,9.30
2023-04-20T06:18:42.260Z,9.10
2023-04-20T06:21:11.105Z,9.40
2023-04-20T06:23:39.275Z,8.20
2023-04-20T06:26:08.866Z,8.80
2023-04-20T06:28:37.717Z,10.03
2023-04-20T06:31:06.118Z,9.00
2023-04-20T06:33:35.657Z,8.23
2023-04-20T06:36:03.688Z,8.70
2023-04-20T06:38:31.689Z,9.10
2023-04-20T06:41:02.862Z,8.40
2023-04-20T06:43:31.089Z,8.53
2023-04-20T06:45:59.078Z,8.53
2023-04-20T06:48:31.629Z,8.73
2023-04-20T06:51:01.968Z,8.70
2023-04-20T06:53:30.462Z,8.70
2023-04-20T06:55:58.783Z,8.87
2023-04-20T06:58:26.796Z,7.40
2023-04-20T07:00:54.934Z,7.77
2023-04-20T07:03:23.329Z,7.53
2023-04-20T07:05:51.632Z,7.07
2023-04-20T07:08:21.362Z,7.57
2023-04-20T07:10:49.351Z,6.77
2023-04-20T07:13:17.310Z,8.07
2023-04-20T07:15:46.710Z,7.60
2023-04-20T07:18:15.417Z,7.33
2023-04-20T07:20:43.719Z,6.43
2023-04-20T07:23:11.738Z,6.77
2023-04-20T07:25:41.174Z,7.50
2023-04-20T07:28:09.203Z,7.23
2023-04-20T07:30:37.537Z,7.90
2023-04-20T07:33:05.786Z,7.47
2023-04-20T07:35:34.781Z,7.77
2023-04-20T07:38:02.894Z,7.03
2023-04-20T07:40:31.092Z,6.93
2023-04-20T07:43:00.864Z,8.87
2023-04-20T07:45:29.129Z,8.77
2023-04-20T07:48:01.461Z,7.40
2023-04-20T07:50:29.889Z,6.40
2023-04-20T07:52:58.040Z,8.83
2023-04-20T07:58:17.466Z,8.53
2023-04-20T08:00:47.430Z,8.83
2023-04-20T08:03:15.817Z,9.43
2023-04-20T08:05:44.732Z,8.57
2023-04-20T08:08:12.815Z,9.60
2023-04-20T08:10:40.860Z,10.10
2023-04-20T08:13:08.862Z,8.30
2023-04-20T08:15:38.370Z,9.13
2023-04-20T08:18:07.412Z,8.50
2023-04-20T08:20:35.844Z,8.27
2023-04-20T08:23:03.955Z,8.27
2023-04-20T08:25:32.929Z,8.20
2023-04-20T08:28:01.104Z,8.57
2023-04-20T08:30:29.630Z,7.27
2023-04-20T08:33:00.126Z,7.93
2023-04-20T08:35:28.267Z,7.53
2023-04-20T08:37:56.449Z,7.07
2023-04-20T08:40:25.119Z,8.50
2023-04-20T08:42:53.659Z,7.43
2023-04-20T08:45:21.848Z,8.27
2023-04-20T08:47:51.702Z,7.00
2023-04-20T08:50:22.300Z,6.80
2023-04-20T08:52:50.336Z,6.90
2023-04-20T08:55:21.627Z,7.13
2023-04-20T08:57:50.343Z,7.90
2023-04-20T09:00:19.212Z,7.30
2023-04-20T09:02:51.527Z,6.67
2023-04-20T09:05:29.685Z,6.90
2023-04-20T09:08:02.237Z,7.00
2023-04-20T09:10:43.133Z,6.70
2023-04-20T09:13:11.253Z,8.17
2023-04-20T09:15:39.469Z,6.40
2023-04-20T09:18:15.427Z,6.40
2023-04-20T09:20:45.164Z,7.40
2023-04-20T09:23:13.852Z,6.80
2023-04-20T09:25:43.659Z,6.37
2023-04-20T09:28:11.787Z,6.17
2023-04-20T09:30:40.929Z,5.50
2023-04-20T09:33:10.916Z,5.97
2023-04-20T09:35:40.502Z,5.50
2023-04-20T09:38:10.931Z,5.47
2023-04-20T09:40:39.136Z,5.33
2023-04-20T09:43:15.205Z,5.47
2023-04-20T09:45:43.790Z,5.00
2023-04-20T09:48:15.752Z,7.37
2023-04-20T09:50:49.899Z,5.47
2023-04-20T09:53:20.808Z,5.73
2023-04-20T09:55:50.360Z,6.43
2023-04-20T09:58:20.721Z,6.80
2023-04-20T10:00:49.105Z,5.77
2023-04-20T10:03:18.612Z,6.30
2023-04-20T10:05:46.988Z,6.43
2023-04-20T10:08:15.192Z,5.40
2023-04-20T10:10:49.888Z,6.77
2023-04-20T10:13:19.513Z,5.70
2023-04-20T10:15:47.872Z,7.37
2023-04-20T10:18:24.605Z,7.83
2023-04-20T10:21:05.125Z,6.90
2023-04-20T10:23:33.109Z,7.17
2023-04-20T10:26:04.002Z,6.27
2023-04-20T10:28:42.981Z,5.57
2023-04-20T10:31:13.944Z,6.80
2023-04-20T10:33:52.467Z,6.43
2023-04-20T10:36:31.390Z,7.23
2023-04-20T10:39:00.586Z,6.90
2023-04-20T10:41:30.694Z,5.93
2023-04-20T10:44:08.762Z,8.10
2023-04-20T10:46:37.050Z,5.63
2023-04-20T10:49:05.194Z,6.63
2023-04-20T10:51:33.664Z,6.00
2023-04-20T10:54:04.981Z,8.47
2023-04-20T10:56:45.703Z,5.77
2023-04-20T10:59:16.304Z,7.13
2023-04-20T11:01:47.259Z,6.97
2023-04-20T11:04:18.461Z,6.43
2023-04-20T11:06:48.814Z,6.80
2023-04-20T11:09:22.685Z,6.53
2023-04-20T11:12:02.401Z,9.17
2023-04-20T11:14:31.119Z,7.50
2023-04-20T11:16:59.309Z,9.10
2023-04-20T11:19:28.626Z,8.17
2023-04-20T11:21:57.027Z,8.70
2023-04-20T11:24:28.066Z,7.40
2023-04-20T11:26:56.724Z,7.00
2023-04-20T11:29:34.367Z,11.90
2023-04-20T11:32:05.371Z,9.63
2023-04-20T11:34:34.729Z,10.00
2023-04-20T11:37:06.663Z,9.70
2023-04-20T11:39:35.085Z,10.97
2023-04-20T11:42:03.734Z,11.10
2023-04-20T11:44:34.039Z,10.37
2023-04-20T11:47:02.435Z,11.73
2023-04-20T11:49:31.846Z,10.37
2023-04-20T11:52:00.150Z,13.87
2023-04-20T11:54:29.894Z,11.77
2023-04-20T11:56:59.040Z,12.80
2023-04-20T11:59:30.662Z,11.17
2023-04-20T12:02:02.908Z,11.77
2023-04-20T12:04:31.446Z,12.50
2023-04-20T12:07:00.256Z,13.20
2023-04-20T12:09:28.504Z,14.17
2023-04-20T12:11:58.299Z,15.83
2023-04-20T12:14:27.275Z,13.40
2023-04-20T12:16:57.435Z,14.57
2023-04-20T12:19:29.905Z,15.00
2023-04-20T12:22:00.014Z,13.97
2023-04-20T12:24:28.204Z,14.90
2023-04-20T12:26:57.804Z,14.57
2023-04-20T12:29:26.075Z,14.60
2023-04-20T12:31:54.213Z,19.10
2023-04-20T12:34:25.640Z,14.47
2023-04-20T12:36:55.136Z,16.47
2023-04-20T12:39:23.221Z,14.60
2023-04-20T12:41:51.353Z,21.60
2023-04-20T12:44:19.587Z,20.10
2023-04-20T12:46:48.311Z,16.30
2023-04-20T12:49:16.775Z,14.93
2023-04-20T12:51:45.091Z,15.47
2023-04-20T12:54:14.724Z,15.00
2023-04-20T12:56:42.844Z,14.80
2023-04-20T12:59:11.380Z,14.63
2023-04-20T13:01:39.406Z,14.93
2023-04-20T13:04:07.621Z,15.40
2023-04-20T13:06:35.993Z,16.03
2023-04-20T13:09:04.687Z,15.70
2023-04-20T13:11:34.888Z,15.23
2023-04-20T13:14:03.006Z,15.20
2023-04-20T13:16:31.051Z,15.33
2023-04-20T13:18:59.253Z,15.43
2023-04-20T13:21:27.357Z,14.17
2023-04-20T13:23:58.534Z,14.17
2023-04-20T13:26:26.989Z,14.33
2023-04-20T13:28:58.451Z,13.50
2023-04-20T13:31:26.869Z,16.13
2023-04-20T13:33:55.354Z,13.93
2023-04-20T13:36:24.948Z,14.37
2023-04-20T13:38:53.667Z,13.33
2023-04-20T13:41:21.904Z,14.50
2023-04-20T13:43:50.751Z,13.50
2023-04-20T13:46:21.389Z,13.53
2023-04-20T13:48:50.445Z,13.80
2023-04-20T13:51:19.096Z,14.27
2023-04-20T13:53:48.702Z,13.67
2023-04-20T13:56:17.469Z,14.40
2023-04-20T13:58:46.171Z,13.77
2023-04-20T14:01:16.744Z,12.73
2023-04-20T14:03:46.902Z,13.43
2023-04-20T14:06:15.132Z,12.90
2023-04-20T14:08:43.438Z,12.77
2023-04-20T14:11:11.733Z,13.00
2023-04-20T14:13:40.081Z,16.93
2023-04-20T14:16:11.562Z,13.40
2023-04-20T14:18:39.775Z,14.00
2023-04-20T14:21:09.384Z,13.03
2023-04-20T14:23:37.678Z,13.03
2023-04-20T14:26:06.218Z,18.37
2023-04-20T14:28:35.116Z,13.00
2023-04-20T14:31:03.655Z,13.63
2023-04-20T14:33:31.764Z,13.37
2023-04-20T14:35:59.816Z,13.20
2023-04-20T14:38:29.665Z,14.20
2023-04-20T14:40:57.809Z,13.30
2023-04-20T14:43:26.072Z,12.43
2023-04-20T14:45:55.166Z,13.13
2023-04-20T14:48:24.225Z,13.10
2023-04-20T14:50:52.506Z,13.10
2023-04-20T14:53:21.612Z,13.30
2023-04-20T14:55:51.810Z,13.63
2023-04-20T14:58:20.568Z,13.33
2023-04-20T15:00:49.621Z,13.87
2023-04-20T15:03:18.424Z,13.23
2023-04-20T15:05:48.232Z,12.93
2023-04-20T15:08:18.625Z,14.07
2023-04-20T15:10:46.723Z,14.27
2023-04-20T15:13:16.399Z,13.70
2023-04-20T15:15:48.985Z,13.97
2023-04-20T15:18:17.713Z,13.57
2023-04-20T15:20:45.967Z,13.03
2023-04-20T15:23:14.123Z,14.73
2023-04-20T15:25:42.305Z,12.67
2023-04-20T15:28:11.536Z,13.47
2023-04-20T15:30:40.996Z,13.70
2023-04-20T15:33:09.158Z,18.20
2023-04-20T15:35:37.257Z,15.30
2023-04-20T15:38:05.534Z,12.67
2023-04-20T15:40:33.951Z,14.97
2023-04-20T15:43:02.819Z,13.07
2023-04-20T15:45:31.186Z,14.90
2023-04-20T15:48:01.023Z,13.07
2023-04-20T15:50:29.530Z,12.20
2023-04-20T15:52:58.236Z,13.77
2023-04-20T15:55:26.453Z,12.37
2023-04-20T15:57:58.013Z,11.70
2023-04-20T16:00:26.239Z,11.87
2023-04-20T16:02:54.843Z,12.03
2023-04-20T16:05:24.959Z,11.83
2023-04-20T16:07:53.669Z,11.43
2023-04-20T16:10:23.476Z,12.03
2023-04-20T16:12:51.570Z,10.60
2023-04-20T16:15:19.931Z,10.60
2023-04-20T16:17:48.485Z,12.47
2023-04-20T16:20:16.779Z,10.97
2023-04-20T16:22:46.322Z,10.63
2023-04-20T16:25:22.533Z,10.00
2023-04-20T16:27:52.305Z,9.87
2023-04-20T16:30:20.641Z,11.00
2023-04-20T16:32:48.780Z,10.87
2023-04-20T16:35:16.963Z,11.27
2023-04-20T16:37:47.137Z,11.40
2023-04-20T16:40:16.170Z,11.53
2023-04-20T16:42:44.232Z,10.93
2023-04-20T16:45:12.342Z,10.70
2023-04-20T16:47:40.630Z,11.00
2023-04-20T16:50:09.301Z,11.53
2023-04-20T16:52:39.363Z,11.40
2023-04-20T16:55:09.834Z,11.07
2023-04-20T16:57:37.924Z,10.63
2023-04-20T17:00:07.682Z,10.77
2023-04-20T17:02:36.272Z,12.07
2023-04-20T17:05:05.144Z,11.07
2023-04-20T17:07:33.756Z,10.67
2023-04-20T17:10:01.892Z,11.07
2023-04-20T17:12:33.804Z,10.87
2023-04-20T17:15:02.291Z,11.13
2023-04-20T17:17:31.085Z,11.77
2023-04-20T17:19:59.437Z,12.53
2023-04-20T17:22:27.831Z,12.70
2023-04-20T17:24:56.220Z,11.97
2023-04-20T17:27:24.312Z,11.27
2023-04-20T17:29:56.122Z,12.23
2023-04-20T17:32:24.713Z,13.80
2023-04-20T17:34:53.879Z,13.27
2023-04-20T17:37:23.172Z,14.20
2023-04-20T17:39:51.827Z,13.33
2023-04-20T17:42:20.833Z,13.30
2023-04-20T17:44:48.889Z,13.00
2023-04-20T17:47:18.626Z,15.07
2023-04-20T17:49:46.801Z,14.40
2023-04-20T17:52:19.356Z,14.67
2023-04-20T17:54:48.251Z,13.53
2023-04-20T17:57:16.496Z,14.20
2023-04-20T17:59:44.653Z,15.10
2023-04-20T18:02:13.485Z,15.30
2023-04-20T18:04:43.202Z,15.43
2023-04-20T18:07:13.412Z,14.80
2023-04-20T18:09:42.725Z,13.90
2023-04-20T18:12:11.418Z,13.73
2023-04-20T18:14:40.912Z,14.23
2023-04-20T18:17:09.199Z,13.73
2023-04-20T18:19:37.756Z,14.67
2023-04-20T18:22:07.551Z,13.83
2023-04-20T18:24:35.669Z,14.87
2023-04-20T18:27:04.190Z,14.87
2023-04-20T18:29:32.505Z,15.27
2023-04-20T18:32:04.316Z,14.60
2023-04-20T18:34:32.517Z,14.93
2023-04-20T18:37:00.627Z,17.23
2023-04-20T18:39:30.163Z,16.13
2023-04-20T18:41:58.320Z,14.93
2023-04-20T18:44:28.408Z,14.93
2023-04-20T18:46:56.774Z,14.57
2023-04-20T18:49:24.832Z,16.73
2023-04-20T18:51:53.076Z,15.17
2023-04-20T18:54:21.237Z,16.23
2023-04-20T18:56:51.423Z,15.67
2023-04-20T18:59:20.279Z,15.87
2023-04-20T19:01:49.144Z,16.10
2023-04-20T19:04:17.810Z,18.50
2023-04-20T19:06:46.102Z,17.13
2023-04-20T19:09:14.507Z,50.47
2023-04-20T19:11:42.656Z,19.97
2023-04-20T19:14:13.314Z,26.27
2023-04-20T19:16:41.452Z,33.27
2023-04-20T19:19:09.724Z,22.23
2023-04-20T19:21:38.203Z,23.73
2023-04-20T19:24:07.068Z,20.33
2023-04-20T19:26:35.476Z,19.50
2023-04-20T19:29:03.632Z,17.57
2023-04-20T19:31:37.552Z,19.47
2023-04-20T19:34:06.752Z,18.93
2023-04-20T19:36:35.056Z,18.63
2023-04-20T19:39:03.962Z,18.97
2023-04-20T19:41:32.091Z,18.57
2023-04-20T19:44:00.723Z,21.10
2023-04-20T19:46:32.651Z,23.73
2023-04-20T19:49:02.682Z,27.40
2023-04-20T19:51:32.166Z,20.80
2023-04-20T19:54:01.719Z,28.83
2023-04-20T19:56:29.812Z,22.13
2023-04-20T19:58:58.055Z,19.97
2023-04-20T20:01:26.147Z,20.10
2023-04-20T20:03:54.514Z,20.33
2023-04-20T20:06:24.203Z,20.83
2023-04-20T20:08:52.360Z,21.13
2023-04-20T20:11:22.171Z,20.83
2023-04-20T20:13:50.142Z,19.97
2023-04-20T20:16:18.476Z,20.10
2023-04-20T20:18:48.594Z,20.60
2023-04-20T20:21:16.582Z,21.30
2023-04-20T20:23:46.545Z,21.17
2023-04-20T20:26:14.852Z,21.37
2023-04-20T20:28:43.088Z,20.63
2023-04-20T20:31:11.218Z,20.97
2023-04-20T20:33:39.359Z,22.93
2023-04-20T20:36:08.031Z,24.47
2023-04-20T20:38:36.238Z,23.37
2023-04-20T20:41:06.646Z,25.53
2023-04-20T20:43:34.806Z,25.73
2023-04-20T20:46:02.869Z,24.13
2023-04-20T20:48:31.295Z,23.57
2023-04-20T20:50:59.328Z,23.97
2023-04-20T20:53:28.312Z,24.67
2023-04-20T20:55:56.552Z,23.67
2023-04-20T20:58:26.099Z,24.70
2023-04-20T21:00:54.544Z,25.00
2023-04-20T21:03:22.812Z,24.50
2023-04-20T21:05:51.162Z,24.00
2023-04-20T21:08:19.398Z,24.73
2023-04-20T21:10:47.429Z,24.17
2023-04-20T21:13:16.115Z,24.33
2023-04-20T21:15:45.726Z,25.67
2023-04-20T21:18:13.756Z,26.50
2023-04-20T21:20:41.713Z,28.10
2023-04-20T21:23:09.701Z,26.87
2023-04-20T21:25:38.088Z,28.07
2023-04-20T21:28:06.416Z,25.97
2023-04-20T21:30:35.274Z,26.20
2023-04-20T21:33:04.757Z,25.60
2023-04-20T21:35:32.797Z,26.47
2023-04-20T21:38:00.972Z,31.43
2023-04-20T21:40:28.987Z,41.80
2023-04-20T21:42:57.064Z,33.30
2023-04-20T21:45:25.003Z,26.37
2023-04-20T21:47:55.272Z,26.30
2023-04-20T21:50:27.429Z,23.47
2023-04-20T21:52:55.501Z,25.73
2023-04-20T21:55:24.811Z,24.73
2023-04-20T21:57:52.865Z,24.87
2023-04-20T22:00:21.210Z,26.30
2023-04-20T22:02:50.578Z,25.40
2023-04-20T22:05:19.034Z,24.60
2023-04-20T22:07:48.420Z,25.73
2023-04-20T22:10:16.432Z,25.33
2023-04-20T22:12:44.449Z,24.20
2023-04-20T22:15:15.211Z,24.50
2023-04-20T22:17:45.372Z,23.80
2023-04-20T22:20:15.074Z,24.37
2023-04-20T22:22:43.204Z,24.27
2023-04-20T22:25:12.983Z,24.70
2023-04-20T22:27:41.471Z,23.20
2023-04-20T22:30:10.386Z,22.57
2023-04-20T22:32:38.851Z,23.53
2023-04-20T22:35:07.894Z,26.83
2023-04-20T22:37:36.266Z,22.90
2023-04-20T22:40:06.444Z,23.60
2023-04-20T22:42:36.118Z,23.10
2023-04-20T22:45:04.396Z,23.37
2023-04-20T22:47:32.489Z,23.50
2023-04-20T22:50:01.650Z,26.20
2023-04-20T22:52:30.085Z,23.87
2023-04-20T22:54:58.101Z,23.80
2023-04-20T22:57:27.138Z,23.43
2023-04-20T22:59:56.562Z,23.90
2023-04-20T23:02:24.985Z,23.73
2023-04-20T23:04:53.286Z,24.00
2023-04-20T23:07:21.273Z,25.00
2023-04-20T23:09:49.245Z,26.13
2023-04-20T23:12:17.492Z,24.63
2023-04-20T23:14:45.636Z,22.77
2023-04-20T23:17:15.552Z,23.53
2023-04-20T23:19:43.581Z,23.87
2023-04-20T23:22:11.546Z,23.20
2023-04-20T23:24:39.636Z,23.43
2023-04-20T23:27:07.674Z,23.07
2023-04-20T23:29:36.568Z,24.00
2023-04-20T23:32:05.031Z,23.93
2023-04-20T23:34:35.147Z,24.57
2023-04-20T23:37:03.396Z,24.93
2023-04-20T23:39:31.379Z,23.43
2023-04-20T23:41:59.556Z,25.00
2023-04-20T23:44:27.530Z,25.23
2023-04-20T23:46:55.484Z,28.27
2023-04-20T23:49:23.454Z,25.23
2023-04-20T23:51:52.800Z,24.57
2023-04-20T23:54:21.150Z,25.80
2023-04-20T23:56:49.137Z,25.97
2023-04-20T23:59:17.487Z,26.00
